Kalol Heliport

IN-0218 · 古吉拉特邦, 印度

罗盘
风向 的 风向 210° 直升机
风: 6 kt, 2 beaufort
0 ft 2.000 4.000 6.000 8.000 10.000
Cloud Cloud Cloud Cloud
SCT 2.000
Cloud Cloud Cloud Cloud
SCT 8.000
METAR VAAH 141400Z 21006KT 4000 FU SCT020 SCT080 34/23 Q0996 NOSIG

METAR Kalol Heliport - IN-0218

Kalol Heliport是,印度中的直升机场。 该机场位于纬度23,22258和经度72,49900。 这个机场没有ICAO代码,我们使用IN-0218作为参考。 机场在Mumbai FIR中。

该航空气象观测是针对Sardar Vallabhbhai Patel International Airport在2024年7月14日 19:30, 当地时间进行的。

机场观察

风向为210°,速度为6 kt。

可见度为4 km。

有疏云,零星散落的云朵在2.000 ft的高度 和 疏云,零星散落的云朵在8.000 ft的高度。 没有观察到天花板。

当前天气为抽烟。 温度和风寒是34 °C。 热指数为39。 露点为23 °C,相对湿度为53%。 海平面上的气压为996 hPa (QNH)。

白天

今天,太阳从06:02升起,在19:29降落。 这适用于Kalol Heliport,世界夏令时可能有所不同。 当地时间与世界标准时间之间的时差为+5 小时 30 分钟。 夏令时目前正在进行中。

公司介绍

我们没有关于这个机场的公司信息。

体会

到Vliegles.nl去找飞行课程,跳伞和其他飞行体验。 浏览页面,了解Kalol Heliport附近所有可用的活动。 你也可以使用搜索功能来寻找你所在地附近的特定飞行课程、跳伞或其他飞行体验。

乌云

2.000 ft SCT 疏云,零星散落的云朵
8.000 ft SCT 疏云,零星散落的云朵

温度 & 天气

天气 抽烟
温度 34 °C
露点 23 °C
相对湿度 53%
热度指数 39 °C
Kp-index 1 (0-9)

白天

日出
06:02 (10:10)
中午
12:45
日落
19:28

小工具

你想在你的网站上有一个关于Kalol Heliport的当前航空天气(METAR)的小部件吗?

显示HTML代码
报告变更